createdAt,value
2018-02-04T00:00:59.914Z,21.20
2018-02-04T00:03:27.432Z,23.27
2018-02-04T00:05:54.933Z,22.50
2018-02-04T00:08:22.422Z,23.30
2018-02-04T00:10:49.924Z,21.50
2018-02-04T00:13:17.431Z,26.50
2018-02-04T00:15:44.921Z,26.00
2018-02-04T00:18:12.394Z,22.90
2018-02-04T00:20:39.879Z,24.03
2018-02-04T00:23:08.131Z,26.30
2018-02-04T00:25:35.606Z,21.40
2018-02-04T00:28:03.855Z,19.00
2018-02-04T00:30:31.334Z,16.97
2018-02-04T00:32:58.817Z,15.93
2018-02-04T00:35:26.281Z,15.03
2018-02-04T00:37:53.770Z,18.07
2018-02-04T00:40:21.256Z,14.90
2018-02-04T00:42:48.735Z,12.27
2018-02-04T00:45:16.978Z,12.07
2018-02-04T00:47:44.458Z,11.43
2018-02-04T00:50:11.926Z,10.90
2018-02-04T00:52:40.170Z,9.93
2018-02-04T00:55:07.663Z,10.30
2018-02-04T00:57:35.901Z,11.17
2018-02-04T01:00:03.374Z,10.57
2018-02-04T01:02:30.875Z,10.00
2018-02-04T01:04:58.344Z,10.13
2018-02-04T01:07:25.810Z,9.67
2018-02-04T01:09:53.282Z,9.40
2018-02-04T01:12:20.750Z,8.13
2018-02-04T01:14:48.219Z,8.00
2018-02-04T01:17:15.687Z,6.47
2018-02-04T01:19:43.152Z,7.07
2018-02-04T01:22:11.405Z,7.20
2018-02-04T01:24:38.866Z,6.77
2018-02-04T01:27:06.340Z,6.63
2018-02-04T01:29:33.807Z,7.57
2018-02-04T01:32:02.051Z,6.80
2018-02-04T01:34:29.519Z,7.73
2018-02-04T01:36:57.003Z,8.20
2018-02-04T01:39:25.236Z,7.33
2018-02-04T01:41:52.719Z,7.40
2018-02-04T01:44:20.191Z,7.10
2018-02-04T01:46:47.664Z,6.83
2018-02-04T01:49:15.127Z,7.23
2018-02-04T01:51:42.602Z,7.73
2018-02-04T01:54:10.078Z,7.10
2018-02-04T01:56:37.555Z,7.20
2018-02-04T01:59:05.024Z,7.57
2018-02-04T02:01:32.499Z,7.90
2018-02-04T02:04:00.748Z,7.50
2018-02-04T02:06:28.639Z,8.43
2018-02-04T02:08:56.883Z,7.20
2018-02-04T02:11:24.341Z,8.77
2018-02-04T02:13:51.803Z,6.70
2018-02-04T02:16:19.274Z,7.63
2018-02-04T02:18:46.751Z,7.73
2018-02-04T02:21:14.990Z,7.40
2018-02-04T02:23:42.472Z,7.97
2018-02-04T02:26:09.931Z,7.50
2018-02-04T02:28:37.408Z,7.37
2018-02-04T02:31:05.638Z,8.57
2018-02-04T02:33:33.118Z,7.70
2018-02-04T02:36:00.587Z,7.20
2018-02-04T02:38:28.826Z,7.30
2018-02-04T02:40:56.286Z,6.97
2018-02-04T02:43:23.768Z,7.80
2018-02-04T02:45:51.298Z,7.77
2018-02-04T02:48:18.782Z,7.37
2018-02-04T02:50:46.234Z,7.37
2018-02-04T02:53:13.719Z,8.33
2018-02-04T02:55:41.943Z,8.07
2018-02-04T02:58:09.432Z,7.77
2018-02-04T03:00:36.894Z,7.03
2018-02-04T03:03:04.366Z,8.20
2018-02-04T03:05:32.602Z,8.00
2018-02-04T03:08:00.364Z,7.53
2018-02-04T03:10:27.830Z,8.00
2018-02-04T03:12:55.298Z,7.70
2018-02-04T03:15:22.755Z,7.30
2018-02-04T03:17:50.221Z,7.30
2018-02-04T03:20:17.687Z,8.47
2018-02-04T03:22:45.167Z,7.50
2018-02-04T03:25:13.402Z,8.00
2018-02-04T03:27:40.873Z,7.97
2018-02-04T03:30:08.357Z,6.73
2018-02-04T03:32:36.591Z,7.33
2018-02-04T03:35:04.059Z,8.37
2018-02-04T03:37:31.538Z,8.37
2018-02-04T03:39:59.766Z,8.30
2018-02-04T03:42:27.243Z,8.10
2018-02-04T03:44:54.711Z,8.87
2018-02-04T03:47:22.194Z,8.50
2018-02-04T03:49:50.426Z,8.37
2018-02-04T03:52:17.898Z,8.80
2018-02-04T03:54:45.358Z,7.70
2018-02-04T03:57:12.840Z,7.33
2018-02-04T03:59:41.070Z,8.27
2018-02-04T04:02:08.537Z,7.60
2018-02-04T04:04:36.006Z,8.40
2018-02-04T04:07:03.502Z,8.37
2018-02-04T04:09:30.986Z,8.17
2018-02-04T04:11:58.450Z,8.50
2018-02-04T04:14:25.926Z,9.57
2018-02-04T04:16:53.401Z,8.70
2018-02-04T04:19:20.874Z,8.90
2018-02-04T04:21:48.335Z,9.57
2018-02-04T04:24:16.584Z,9.10
2018-02-04T04:26:44.046Z,9.40
2018-02-04T04:29:11.527Z,9.43
2018-02-04T04:31:38.992Z,9.07
2018-02-04T04:34:07.238Z,9.00
2018-02-04T04:36:34.701Z,8.50
2018-02-04T04:39:02.178Z,8.87
2018-02-04T04:41:30.424Z,7.93
2018-02-04T04:43:57.899Z,9.90
2018-02-04T04:46:25.367Z,8.33
2018-02-04T04:48:52.852Z,8.13
2018-02-04T04:51:21.080Z,9.57
2018-02-04T04:53:48.556Z,8.57
2018-02-04T04:56:16.026Z,9.37
2018-02-04T04:58:44.271Z,10.20
2018-02-04T05:01:11.742Z,10.00
2018-02-04T05:03:39.226Z,10.30
2018-02-04T05:06:07.468Z,10.00
2018-02-04T05:08:34.946Z,10.83
2018-02-04T05:11:02.419Z,11.17
2018-02-04T05:13:30.661Z,11.10
2018-02-04T05:15:58.144Z,11.00
2018-02-04T05:18:26.387Z,10.60
2018-02-04T05:20:53.851Z,11.70
2018-02-04T05:23:21.334Z,11.10
2018-02-04T05:25:48.789Z,11.33
2018-02-04T05:28:17.030Z,10.57
2018-02-04T05:30:44.493Z,11.40
2018-02-04T05:33:11.971Z,10.47
2018-02-04T05:35:39.438Z,11.47
2018-02-04T05:38:07.683Z,11.67
2018-02-04T05:40:35.167Z,12.70
2018-02-04T05:43:02.644Z,12.87
2018-02-04T05:45:30.884Z,12.40
2018-02-04T05:47:58.368Z,11.93
2018-02-04T05:50:26.614Z,12.80
2018-02-04T05:52:54.092Z,12.47
2018-02-04T05:55:21.563Z,11.90
2018-02-04T05:57:49.822Z,13.20
2018-02-04T06:00:17.283Z,14.73
2018-02-04T06:02:44.758Z,12.73
2018-02-04T06:05:12.995Z,12.33
2018-02-04T06:07:41.179Z,12.97
2018-02-04T06:10:08.656Z,14.07
2018-02-04T06:12:36.893Z,14.77
2018-02-04T06:15:04.366Z,16.27
2018-02-04T06:17:31.842Z,14.93
2018-02-04T06:19:59.315Z,13.77
2018-02-04T06:22:27.551Z,12.10
2018-02-04T06:24:55.030Z,13.77
2018-02-04T06:27:22.504Z,15.97
2018-02-04T06:29:50.750Z,16.17
2018-02-04T06:32:18.219Z,16.13
2018-02-04T06:34:45.695Z,14.10
2018-02-04T06:37:13.931Z,18.27
2018-02-04T06:39:41.406Z,15.20
2018-02-04T06:42:08.874Z,17.17
2018-02-04T06:44:36.353Z,17.43
2018-02-04T06:47:04.592Z,19.33
2018-02-04T06:49:32.826Z,17.20
2018-02-04T06:52:00.299Z,17.70
2018-02-04T06:54:27.942Z,15.23
2018-02-04T06:56:55.410Z,16.60
2018-02-04T06:59:22.902Z,21.20
2018-02-04T07:01:50.384Z,21.77
2018-02-04T07:04:17.866Z,24.90
2018-02-04T07:06:45.335Z,21.70
2018-02-04T07:09:12.810Z,21.00
2018-02-04T07:11:40.282Z,21.23
2018-02-04T07:14:07.767Z,19.37
2018-02-04T07:16:35.239Z,18.23
2018-02-04T07:19:03.478Z,14.03
2018-02-04T07:21:30.962Z,14.27
2018-02-04T07:23:59.206Z,13.80
2018-02-04T07:26:26.687Z,16.10
2018-02-04T07:28:54.168Z,15.27
2018-02-04T07:31:22.397Z,15.63
2018-02-04T07:33:49.986Z,16.20
2018-02-04T07:36:17.547Z,17.23
2018-02-04T07:38:45.028Z,15.70
2018-02-04T07:41:13.263Z,17.43
2018-02-04T07:43:40.745Z,18.70
2018-02-04T07:46:08.207Z,15.07
2018-02-04T07:48:35.686Z,14.33
2018-02-04T07:51:03.923Z,16.60
2018-02-04T07:53:31.508Z,19.50
2018-02-04T07:55:59.760Z,16.60
2018-02-04T07:58:27.330Z,19.20
2018-02-04T08:00:54.874Z,22.57
2018-02-04T08:03:22.355Z,15.70
2018-02-04T08:05:49.832Z,15.77
2018-02-04T08:08:18.078Z,19.00
2018-02-04T08:10:45.551Z,17.90
2018-02-04T08:13:13.819Z,20.57
2018-02-04T08:15:41.307Z,19.73
2018-02-04T08:18:09.556Z,19.10
2018-02-04T08:20:37.098Z,15.27
2018-02-04T08:23:04.567Z,16.23
2018-02-04T08:25:32.050Z,16.97
2018-02-04T08:28:00.282Z,15.37
2018-02-04T08:30:27.862Z,16.47
2018-02-04T08:32:55.336Z,16.00
2018-02-04T08:35:23.610Z,17.30
2018-02-04T08:37:51.080Z,15.90
2018-02-04T08:40:19.319Z,17.20
2018-02-04T08:42:46.898Z,18.17
2018-02-04T08:45:14.370Z,16.20
2018-02-04T08:47:42.735Z,16.83
2018-02-04T08:50:10.210Z,17.07
2018-02-04T08:52:37.686Z,15.13
2018-02-04T08:55:05.193Z,16.70
2018-02-04T08:57:32.670Z,16.20
2018-02-04T09:00:01.652Z,18.13
2018-02-04T09:02:29.223Z,16.50
2018-02-04T09:04:56.700Z,15.43
2018-02-04T09:07:24.953Z,16.60
2018-02-04T09:09:52.431Z,16.20
2018-02-04T09:12:20.661Z,14.07
2018-02-04T09:14:48.138Z,15.90
2018-02-04T09:17:15.612Z,18.30
2018-02-04T09:19:43.873Z,15.50
2018-02-04T09:22:11.346Z,17.00
2018-02-04T09:24:39.598Z,15.87
2018-02-04T09:27:07.070Z,17.20
2018-02-04T09:29:34.550Z,15.93
2018-02-04T09:32:02.796Z,16.40
2018-02-04T09:34:30.270Z,16.20
2018-02-04T09:36:59.253Z,15.50
2018-02-04T09:39:26.810Z,15.87
2018-02-04T09:41:54.280Z,15.93
2018-02-04T09:44:21.770Z,15.27
2018-02-04T09:46:49.997Z,14.70
2018-02-04T09:49:17.570Z,15.93
2018-02-04T09:51:45.131Z,16.37
2018-02-04T09:54:12.609Z,15.43
2018-02-04T09:56:40.869Z,13.93
2018-02-04T09:59:09.222Z,14.80
2018-02-04T10:01:36.695Z,13.80
2018-02-04T10:04:05.136Z,13.63
2018-02-04T10:06:32.618Z,14.70
2018-02-04T10:09:00.250Z,13.97
2018-02-04T10:11:28.150Z,16.03
2018-02-04T10:13:55.622Z,13.87
2018-02-04T10:16:23.999Z,14.43
2018-02-04T10:18:51.771Z,14.10
2018-02-04T10:21:20.209Z,13.73
2018-02-04T10:23:48.288Z,13.63
2018-02-04T10:26:15.758Z,15.17
2018-02-04T10:28:44.424Z,14.83
2018-02-04T10:31:12.011Z,13.70
2018-02-04T10:33:39.558Z,14.87
2018-02-04T10:36:07.359Z,12.30
2018-02-04T10:38:35.102Z,11.87
2018-02-04T10:41:02.632Z,12.60
2018-02-04T10:43:30.096Z,13.73
2018-02-04T10:45:57.596Z,13.57
2018-02-04T10:48:26.089Z,13.97
2018-02-04T10:50:59.159Z,13.20
2018-02-04T10:53:26.630Z,12.60
2018-02-04T10:55:54.114Z,11.97
2018-02-04T10:58:21.634Z,12.20
2018-02-04T11:00:49.155Z,12.27
2018-02-04T11:03:16.629Z,10.90
2018-02-04T11:05:44.102Z,11.33
2018-02-04T11:08:11.587Z,11.07
2018-02-04T11:10:39.994Z,12.47
2018-02-04T11:13:07.469Z,10.10
2018-02-04T11:15:34.948Z,9.80
2018-02-04T11:18:02.461Z,10.90
2018-02-04T11:20:30.495Z,11.80
2018-02-04T11:22:57.990Z,11.40
2018-02-04T11:25:26.297Z,10.83
2018-02-04T11:27:53.766Z,13.10
2018-02-04T11:30:21.402Z,13.37
2018-02-04T11:32:48.884Z,13.27
2018-02-04T11:35:16.360Z,12.77
2018-02-04T11:37:43.845Z,11.77
2018-02-04T11:40:11.315Z,15.17
2018-02-04T11:42:39.547Z,13.87
2018-02-04T11:45:07.038Z,13.97
2018-02-04T11:47:35.275Z,12.63
2018-02-04T11:50:02.755Z,12.13
2018-02-04T11:52:30.225Z,10.30
2018-02-04T11:54:57.715Z,10.97
2018-02-04T11:57:25.185Z,8.63
2018-02-04T11:59:52.711Z,7.87
2018-02-04T12:02:20.182Z,8.07
2018-02-04T12:04:48.414Z,9.17
2018-02-04T12:07:15.926Z,9.97
2018-02-04T12:09:43.355Z,8.90
2018-02-04T12:12:10.818Z,7.90
2018-02-04T12:14:39.063Z,9.67
2018-02-04T12:17:06.531Z,7.53
2018-02-04T12:19:34.003Z,9.10
2018-02-04T12:22:01.468Z,9.60
2018-02-04T12:24:29.720Z,8.27
2018-02-04T12:26:57.186Z,7.63
2018-02-04T12:29:24.655Z,8.30
2018-02-04T12:31:52.123Z,7.60
2018-02-04T12:34:20.368Z,8.07
2018-02-04T12:36:47.841Z,9.47
2018-02-04T12:39:15.298Z,8.37
2018-02-04T12:41:42.819Z,8.80
2018-02-04T12:44:10.290Z,7.70
2018-02-04T12:46:37.774Z,7.40
2018-02-04T12:49:05.234Z,7.30
2018-02-04T12:51:32.705Z,9.00
2018-02-04T12:54:00.933Z,8.57
2018-02-04T12:56:28.410Z,8.63
2018-02-04T12:58:55.878Z,7.40
2018-02-04T13:01:23.347Z,9.03
2018-02-04T13:03:50.815Z,10.03
2018-02-04T13:06:19.068Z,8.67
2018-02-04T13:08:46.528Z,7.93
2018-02-04T13:11:14.014Z,8.53
2018-02-04T13:13:42.244Z,7.57
2018-02-04T13:16:09.719Z,8.13
2018-02-04T13:18:37.197Z,9.70
2018-02-04T13:21:05.442Z,8.20
2018-02-04T13:23:32.914Z,14.60
2018-02-04T13:26:00.394Z,14.93
2018-02-04T13:28:28.633Z,12.40
2018-02-04T13:30:56.123Z,19.77
2018-02-04T13:33:24.360Z,9.47
2018-02-04T13:35:51.834Z,11.90
2018-02-04T13:38:19.310Z,9.40
2018-02-04T13:40:46.791Z,10.03
2018-02-04T13:43:15.023Z,9.70
2018-02-04T13:45:43.267Z,10.77
2018-02-04T13:48:10.744Z,10.03
2018-02-04T13:50:38.214Z,10.03
2018-02-04T13:53:05.693Z,9.90
2018-02-04T13:55:33.172Z,11.97
2018-02-04T13:58:01.447Z,9.93
2018-02-04T14:00:29.696Z,9.43
2018-02-04T14:02:57.174Z,11.10
2018-02-04T14:05:25.419Z,10.70
2018-02-04T14:07:52.887Z,10.17
2018-02-04T14:10:20.366Z,9.87
2018-02-04T14:12:48.602Z,11.83
2018-02-04T14:15:16.086Z,14.67
2018-02-04T14:17:43.558Z,15.03
2018-02-04T14:20:11.801Z,10.30
2018-02-04T14:22:39.274Z,11.30
2018-02-04T14:25:06.746Z,8.97
2018-02-04T14:27:34.998Z,11.73
2018-02-04T14:30:02.677Z,11.00
2018-02-04T14:32:30.157Z,9.53
2018-02-04T14:34:58.390Z,10.17
2018-02-04T14:37:25.867Z,9.30
2018-02-04T14:39:53.335Z,8.70
2018-02-04T14:42:20.814Z,16.13
2018-02-04T14:44:48.283Z,13.77
2018-02-04T14:47:15.773Z,10.87
2018-02-04T14:49:43.353Z,12.27
2018-02-04T14:52:10.847Z,10.37
2018-02-04T14:54:38.319Z,9.83
2018-02-04T14:57:05.829Z,12.47
2018-02-04T14:59:33.337Z,12.67
2018-02-04T15:02:00.823Z,8.60
2018-02-04T15:04:28.309Z,9.80
2018-02-04T15:06:55.787Z,13.60
2018-02-04T15:09:24.022Z,17.00
2018-02-04T15:11:52.267Z,16.80
2018-02-04T15:14:19.743Z,11.03
2018-02-04T15:16:47.226Z,9.67
2018-02-04T15:19:14.695Z,10.30
2018-02-04T15:21:42.173Z,11.00
2018-02-04T15:24:10.411Z,9.63
2018-02-04T15:26:37.892Z,10.73
2018-02-04T15:29:05.362Z,10.03
2018-02-04T15:31:33.603Z,9.27
2018-02-04T15:34:01.095Z,9.83
2018-02-04T15:36:29.338Z,9.70
2018-02-04T15:38:56.816Z,10.87
2018-02-04T15:41:24.295Z,10.80
2018-02-04T15:43:52.534Z,9.27
2018-02-04T15:46:20.014Z,10.10
2018-02-04T15:48:47.475Z,10.97
2018-02-04T15:51:14.962Z,11.80
2018-02-04T15:53:42.432Z,16.03
2018-02-04T15:56:09.910Z,14.07
2018-02-04T15:58:37.378Z,18.80
2018-02-04T16:01:04.854Z,18.73
2018-02-04T16:03:32.319Z,25.07
2018-02-04T16:05:59.806Z,25.90
2018-02-04T16:08:27.305Z,22.80
2018-02-04T16:10:54.786Z,21.70
2018-02-04T16:13:22.258Z,25.20
2018-02-04T16:15:50.515Z,18.30
2018-02-04T16:18:18.011Z,16.00
2018-02-04T16:20:46.243Z,13.43
2018-02-04T16:23:13.771Z,13.10
2018-02-04T16:25:41.255Z,12.40
2018-02-04T16:28:08.727Z,11.93
2018-02-04T16:30:36.221Z,11.73
2018-02-04T16:33:04.473Z,11.30
2018-02-04T16:35:31.953Z,12.23
2018-02-04T16:38:00.195Z,10.83
2018-02-04T16:40:27.654Z,12.30
2018-02-04T16:42:55.127Z,11.97
2018-02-04T16:45:22.598Z,29.90
2018-02-04T16:47:50.840Z,24.67
2018-02-04T16:50:18.329Z,21.73
2018-02-04T16:52:45.802Z,19.43
2018-02-04T16:55:14.036Z,16.10
2018-02-04T16:57:41.515Z,10.70
2018-02-04T17:00:08.999Z,11.47
2018-02-04T17:02:36.487Z,11.57
2018-02-04T17:05:03.953Z,12.30
2018-02-04T17:07:31.443Z,12.20
2018-02-04T17:09:58.921Z,11.70
2018-02-04T17:12:27.171Z,12.00
2018-02-04T17:14:54.630Z,10.73
2018-02-04T17:17:22.940Z,10.60
2018-02-04T17:19:51.179Z,11.13
2018-02-04T17:22:18.655Z,12.10
2018-02-04T17:24:46.890Z,11.07
2018-02-04T17:27:14.380Z,11.27
2018-02-04T17:29:41.846Z,13.53
2018-02-04T17:32:09.314Z,11.80
2018-02-04T17:34:37.565Z,11.87
2018-02-04T17:37:05.042Z,12.00
2018-02-04T17:39:32.512Z,11.27
2018-02-04T17:42:00.755Z,12.80
2018-02-04T17:44:28.222Z,11.63
2018-02-04T17:46:55.718Z,12.67
2018-02-04T17:49:23.192Z,12.17
2018-02-04T17:51:50.679Z,10.88
2018-02-04T17:54:18.156Z,10.50
2018-02-04T17:56:45.647Z,11.25
2018-02-04T17:59:13.136Z,10.75
2018-02-04T18:01:40.653Z,11.23
2018-02-04T18:04:08.885Z,10.63
2018-02-04T18:06:36.381Z,10.53
2018-02-04T18:09:04.624Z,10.47
2018-02-04T18:11:32.131Z,9.47
2018-02-04T18:14:00.362Z,9.67
2018-02-04T18:16:27.834Z,10.97
2018-02-04T18:18:56.094Z,11.73
2018-02-04T18:21:23.602Z,11.60
2018-02-04T18:23:51.090Z,10.63
2018-02-04T18:26:18.570Z,11.43
2018-02-04T18:28:46.065Z,11.67
2018-02-04T18:31:14.354Z,13.03
2018-02-04T18:33:41.837Z,12.88
2018-02-04T18:36:09.317Z,12.97
2018-02-04T18:38:36.821Z,13.53
2018-02-04T18:41:04.336Z,12.73
2018-02-04T18:43:31.835Z,13.27
2018-02-04T18:45:59.322Z,16.40
2018-02-04T18:48:27.638Z,15.18
2018-02-04T18:50:55.170Z,13.88
2018-02-04T18:53:22.655Z,14.55
2018-02-04T18:55:50.177Z,14.40
2018-02-04T18:58:17.666Z,13.20
2018-02-04T19:00:45.143Z,13.15
2018-02-04T19:03:12.642Z,13.68
2018-02-04T19:05:40.119Z,12.52
2018-02-04T19:08:07.617Z,13.62
2018-02-04T19:10:35.914Z,12.25
2018-02-04T19:13:03.353Z,12.30
2018-02-04T19:15:31.656Z,12.82
2018-02-04T19:17:59.158Z,11.88
2018-02-04T19:20:26.638Z,11.43
2018-02-04T19:22:54.131Z,12.60
2018-02-04T19:25:21.608Z,12.40
2018-02-04T19:27:49.094Z,12.88
2018-02-04T19:30:16.566Z,13.40
2018-02-04T19:32:44.061Z,12.75
2018-02-04T19:35:12.303Z,12.18
2018-02-04T19:37:39.787Z,12.23
2018-02-04T19:40:08.067Z,13.40
2018-02-04T19:42:35.522Z,12.27
2018-02-04T19:45:03.772Z,11.35
2018-02-04T19:47:31.274Z,12.95
2018-02-04T19:49:58.753Z,13.85
2018-02-04T19:52:26.248Z,12.75
2018-02-04T19:54:53.719Z,12.35
2018-02-04T19:57:21.207Z,12.57
2018-02-04T19:59:48.726Z,14.30
2018-02-04T20:02:16.216Z,15.25
2018-02-04T20:04:43.695Z,13.50
2018-02-04T20:07:11.189Z,14.77
2018-02-04T20:09:38.662Z,14.73
2018-02-04T20:12:06.148Z,13.00
2018-02-04T20:14:33.630Z,16.55
2018-02-04T20:17:01.110Z,15.88
2018-02-04T20:19:28.600Z,15.93
2018-02-04T20:21:56.076Z,16.00
2018-02-04T20:24:24.353Z,14.55
2018-02-04T20:26:52.597Z,16.08
2018-02-04T20:29:20.086Z,15.93
2018-02-04T20:31:48.331Z,18.35
2018-02-04T20:34:27.725Z,17.87
2018-02-04T20:36:55.207Z,18.77
2018-02-04T20:39:22.684Z,15.75
2018-02-04T20:41:50.156Z,18.80
2018-02-04T20:44:17.638Z,18.58
2018-02-04T20:46:45.115Z,20.33
2018-02-04T20:49:12.603Z,18.15
2018-02-04T20:51:40.076Z,20.27
2018-02-04T20:54:07.558Z,16.98
2018-02-04T20:56:35.798Z,18.83
2018-02-04T20:59:03.292Z,17.48
2018-02-04T21:01:31.528Z,17.62
2018-02-04T21:03:59.061Z,17.45
2018-02-04T21:06:27.272Z,15.57
2018-02-04T21:08:54.767Z,19.20
2018-02-04T21:11:23.006Z,19.67
2018-02-04T21:13:50.495Z,19.90
2018-02-04T21:16:18.730Z,17.67
2018-02-04T21:18:46.222Z,17.85
2018-02-04T21:21:14.457Z,19.62
2018-02-04T21:23:41.946Z,18.52
2018-02-04T21:26:09.428Z,17.98
2018-02-04T21:28:37.686Z,16.65
2018-02-04T21:31:05.931Z,17.10
2018-02-04T21:33:33.414Z,17.90
2018-02-04T21:36:00.894Z,17.50
2018-02-04T21:38:29.154Z,16.52
2018-02-04T21:40:56.660Z,17.98
2018-02-04T21:43:24.149Z,17.30
2018-02-04T21:45:51.620Z,17.35
2018-02-04T21:48:19.119Z,17.73
2018-02-04T21:50:46.594Z,22.35
2018-02-04T21:53:14.086Z,20.30
2018-02-04T21:55:41.569Z,19.50
2018-02-04T21:58:09.833Z,17.55
2018-02-04T22:00:37.318Z,18.87
2018-02-04T22:03:04.815Z,18.95
2018-02-04T22:05:32.310Z,19.00
2018-02-04T22:07:59.794Z,19.12
2018-02-04T22:10:28.040Z,19.52
2018-02-04T22:12:55.521Z,19.75
2018-02-04T22:15:23.776Z,20.60
2018-02-04T22:17:51.299Z,18.85
2018-02-04T22:20:18.760Z,19.48
2018-02-04T22:22:46.231Z,20.23
2018-02-04T22:25:13.717Z,22.00
2018-02-04T22:27:41.968Z,19.20
2018-02-04T22:30:09.486Z,19.45
2018-02-04T22:32:36.979Z,19.15
2018-02-04T22:35:04.467Z,20.65
2018-02-04T22:37:32.714Z,20.88
2018-02-04T22:40:00.219Z,21.85
2018-02-04T22:42:28.460Z,21.12
2018-02-04T22:44:55.950Z,19.37
2018-02-04T22:47:24.188Z,20.62
2018-02-04T22:49:51.687Z,19.25
2018-02-04T22:52:19.953Z,18.65
2018-02-04T22:54:48.218Z,17.30
2018-02-04T22:57:15.694Z,18.00
2018-02-04T22:59:43.200Z,18.93
2018-02-04T23:02:10.678Z,17.60
2018-02-04T23:04:38.222Z,16.87
2018-02-04T23:07:06.416Z,16.10
2018-02-04T23:09:33.890Z,17.07
2018-02-04T23:12:01.364Z,15.20
2018-02-04T23:14:29.615Z,17.03
2018-02-04T23:16:57.086Z,15.57
2018-02-04T23:19:25.339Z,15.60
2018-02-04T23:21:52.819Z,14.83
2018-02-04T23:24:20.295Z,14.87
2018-02-04T23:26:48.534Z,14.97
2018-02-04T23:29:16.023Z,16.43
2018-02-04T23:31:44.275Z,14.07
2018-02-04T23:34:11.762Z,14.20
2018-02-04T23:36:40.007Z,12.50
2018-02-04T23:39:07.487Z,15.17
2018-02-04T23:41:35.722Z,17.40
2018-02-04T23:44:03.203Z,14.70
2018-02-04T23:46:30.674Z,16.80
2018-02-04T23:48:58.927Z,14.00
2018-02-04T23:51:26.398Z,14.50
2018-02-04T23:53:53.876Z,15.40
2018-02-04T23:56:22.118Z,14.13
2018-02-04T23:58:49.595Z,14.57
